createdAt,value
2022-10-06T00:00:50.965Z,67.38
2022-10-06T00:03:34.406Z,67.61
2022-10-06T00:06:04.736Z,66.31
2022-10-06T00:08:33.454Z,66.03
2022-10-06T00:11:00.889Z,66.21
2022-10-06T00:13:29.344Z,65.83
2022-10-06T00:15:56.673Z,66.48
2022-10-06T00:18:24.408Z,66.52
2022-10-06T00:20:56.200Z,66.14
2022-10-06T00:23:25.471Z,66.83
2022-10-06T00:25:53.290Z,66.16
2022-10-06T00:28:21.020Z,66.22
2022-10-06T00:30:48.444Z,66.46
2022-10-06T00:33:17.724Z,67.39
2022-10-06T00:35:45.331Z,66.88
2022-10-06T00:38:15.940Z,67.17
2022-10-06T00:40:46.266Z,66.37
2022-10-06T00:43:55.816Z,66.22
2022-10-06T00:46:34.412Z,65.74
2022-10-06T00:49:05.179Z,66.09
2022-10-06T00:51:34.453Z,66.27
2022-10-06T00:54:02.853Z,66.26
2022-10-06T00:56:31.566Z,65.63
2022-10-06T00:58:59.063Z,65.66
2022-10-06T01:01:27.106Z,65.79
2022-10-06T01:03:59.519Z,65.97
2022-10-06T01:06:27.114Z,65.74
2022-10-06T01:08:54.701Z,66.12
2022-10-06T01:11:22.081Z,66.09
2022-10-06T01:13:51.230Z,65.74
2022-10-06T01:16:20.640Z,65.66
2022-10-06T01:18:48.174Z,65.59
2022-10-06T01:21:23.984Z,65.58
2022-10-06T01:23:52.899Z,65.90
2022-10-06T01:26:23.817Z,65.92
2022-10-06T01:28:51.699Z,66.73
2022-10-06T01:31:19.487Z,66.53
2022-10-06T01:33:51.457Z,66.28
2022-10-06T01:36:19.069Z,66.43
2022-10-06T01:38:46.384Z,66.17
2022-10-06T01:41:15.583Z,66.70
2022-10-06T01:43:42.882Z,66.92
2022-10-06T01:46:10.055Z,67.08
2022-10-06T01:48:38.018Z,66.97
2022-10-06T01:51:05.679Z,66.80
2022-10-06T01:53:33.450Z,66.99
2022-10-06T01:56:01.199Z,67.42
2022-10-06T01:58:30.335Z,67.06
2022-10-06T02:00:58.235Z,67.28
2022-10-06T02:03:26.128Z,67.48
2022-10-06T02:05:56.370Z,66.82
2022-10-06T02:08:23.742Z,66.49
2022-10-06T02:10:51.711Z,66.12
2022-10-06T02:13:19.059Z,66.20
2022-10-06T02:15:47.874Z,66.18
2022-10-06T02:18:15.637Z,66.00
2022-10-06T02:20:43.953Z,67.17
2022-10-06T02:23:11.235Z,67.03
2022-10-06T02:25:38.734Z,67.09
2022-10-06T02:28:06.062Z,67.74
2022-10-06T02:30:33.601Z,67.61
2022-10-06T02:33:02.776Z,68.48
2022-10-06T02:35:30.122Z,67.91
2022-10-06T02:37:57.416Z,68.28
2022-10-06T02:40:24.948Z,68.42
2022-10-06T02:42:52.291Z,68.14
2022-10-06T02:45:19.532Z,68.60
2022-10-06T02:47:47.472Z,69.11
2022-10-06T02:50:16.363Z,68.81
2022-10-06T02:52:43.562Z,68.52
2022-10-06T02:55:11.760Z,69.11
2022-10-06T02:57:39.797Z,69.31
2022-10-06T03:00:08.597Z,69.58
2022-10-06T03:02:36.627Z,69.10
2022-10-06T03:05:04.669Z,69.68
2022-10-06T03:07:33.639Z,69.66
2022-10-06T03:10:01.424Z,69.09
2022-10-06T03:12:28.825Z,69.74
2022-10-06T03:14:56.172Z,69.97
2022-10-06T03:17:23.795Z,69.89
2022-10-06T03:19:51.127Z,69.67
2022-10-06T03:22:18.707Z,69.95
2022-10-06T03:24:48.441Z,70.02
2022-10-06T03:27:18.122Z,70.45
2022-10-06T03:29:45.351Z,70.32
2022-10-06T03:32:13.111Z,70.89
2022-10-06T03:34:40.602Z,70.46
2022-10-06T03:37:08.128Z,70.13
2022-10-06T03:39:35.677Z,69.70
2022-10-06T03:42:04.480Z,70.14
2022-10-06T03:44:31.739Z,70.67
2022-10-06T03:46:59.496Z,70.89
2022-10-06T03:49:27.031Z,70.39
2022-10-06T03:51:54.589Z,70.84
2022-10-06T03:54:22.321Z,71.01
2022-10-06T03:56:49.554Z,71.20
2022-10-06T03:59:18.304Z,70.66
2022-10-06T04:01:48.333Z,71.17
2022-10-06T04:04:15.626Z,70.95
2022-10-06T04:06:44.122Z,71.32
2022-10-06T04:09:15.605Z,71.10
2022-10-06T04:11:44.879Z,70.98
2022-10-06T04:14:14.299Z,71.52
2022-10-06T04:16:44.635Z,71.56
2022-10-06T04:19:14.305Z,71.58
2022-10-06T04:21:43.548Z,71.41
2022-10-06T04:24:11.580Z,71.45
2022-10-06T04:26:40.954Z,71.60
2022-10-06T04:29:08.624Z,71.54
2022-10-06T04:31:37.629Z,71.70
2022-10-06T04:34:07.559Z,70.93
2022-10-06T04:36:37.179Z,70.94
2022-10-06T04:39:05.864Z,70.92
2022-10-06T04:41:35.132Z,70.43
2022-10-06T04:44:04.115Z,70.47
2022-10-06T04:46:47.922Z,70.38
2022-10-06T04:49:20.388Z,70.35
2022-10-06T04:51:48.793Z,71.20
2022-10-06T04:54:15.996Z,71.13
2022-10-06T04:56:43.717Z,71.71
2022-10-06T04:59:11.169Z,71.79
2022-10-06T05:01:38.362Z,72.01
2022-10-06T05:04:06.689Z,72.10
2022-10-06T05:06:37.117Z,72.37
2022-10-06T05:09:07.070Z,72.28
2022-10-06T05:11:34.916Z,71.89
2022-10-06T05:14:02.128Z,72.08
2022-10-06T05:16:31.070Z,72.31
2022-10-06T05:18:59.176Z,72.08
2022-10-06T05:21:28.208Z,71.29
2022-10-06T05:23:57.344Z,70.74
2022-10-06T05:26:27.080Z,70.75
2022-10-06T05:28:54.843Z,70.52
2022-10-06T05:31:24.372Z,69.75
2022-10-06T05:33:51.723Z,69.63
2022-10-06T05:36:21.095Z,69.35
2022-10-06T05:38:48.960Z,69.15
2022-10-06T05:41:19.329Z,69.12
2022-10-06T05:43:47.514Z,69.97
2022-10-06T05:46:23.249Z,70.54
2022-10-06T05:48:52.182Z,71.20
2022-10-06T05:51:21.046Z,70.43
2022-10-06T05:53:49.088Z,70.65
2022-10-06T05:56:21.037Z,70.43
2022-10-06T05:58:49.842Z,70.10
2022-10-06T06:01:19.892Z,68.98
2022-10-06T06:03:49.115Z,67.87
2022-10-06T06:06:21.541Z,67.98
2022-10-06T06:08:52.307Z,68.60
2022-10-06T06:11:21.559Z,67.83
2022-10-06T06:13:49.220Z,68.16
2022-10-06T06:16:16.552Z,68.29
2022-10-06T06:18:44.650Z,67.94
2022-10-06T06:21:11.836Z,67.34
2022-10-06T06:23:40.988Z,66.59
2022-10-06T06:26:10.874Z,66.66
2022-10-06T06:28:39.529Z,66.66
2022-10-06T06:31:08.589Z,67.01
2022-10-06T06:33:37.329Z,67.28
2022-10-06T06:36:11.583Z,67.68
2022-10-06T06:38:39.496Z,68.21
2022-10-06T06:41:14.422Z,67.06
2022-10-06T06:43:43.772Z,66.47
2022-10-06T06:46:11.605Z,66.48
2022-10-06T06:48:39.514Z,66.58
2022-10-06T06:51:07.448Z,66.29
2022-10-06T06:53:35.097Z,66.00
2022-10-06T06:56:02.927Z,65.09
2022-10-06T06:58:30.516Z,65.35
2022-10-06T07:01:07.328Z,63.84
2022-10-06T07:03:59.322Z,64.08
2022-10-06T07:06:27.788Z,62.66
2022-10-06T07:08:57.152Z,63.10
2022-10-06T07:11:26.851Z,63.19
2022-10-06T07:13:55.190Z,62.65
2022-10-06T07:16:24.690Z,62.40
2022-10-06T07:18:51.880Z,63.02
2022-10-06T07:21:19.230Z,62.92
2022-10-06T07:23:50.777Z,62.60
2022-10-06T07:26:18.283Z,62.44
2022-10-06T07:28:45.927Z,62.68
2022-10-06T07:31:13.616Z,63.29
2022-10-06T07:33:42.756Z,63.46
2022-10-06T07:36:10.419Z,63.81
2022-10-06T07:38:37.752Z,64.45
2022-10-06T07:41:18.837Z,64.56
2022-10-06T07:43:47.358Z,64.64
2022-10-06T07:46:14.947Z,64.11
2022-10-06T07:48:43.648Z,65.20
2022-10-06T07:51:14.074Z,63.66
2022-10-06T07:53:41.419Z,63.72
2022-10-06T07:56:08.999Z,64.01
2022-10-06T07:58:36.943Z,64.02
2022-10-06T08:01:08.972Z,63.98
2022-10-06T08:03:37.566Z,63.00
2022-10-06T08:06:07.631Z,64.45
2022-10-06T08:08:35.094Z,64.35
2022-10-06T08:11:02.602Z,63.95
2022-10-06T08:13:30.913Z,64.14
2022-10-06T08:16:04.698Z,64.83
2022-10-06T08:18:48.217Z,65.70
2022-10-06T08:21:18.817Z,64.79
2022-10-06T08:23:47.830Z,66.00
2022-10-06T08:26:17.413Z,65.85
2022-10-06T08:28:45.736Z,66.05
2022-10-06T08:31:14.545Z,66.02
2022-10-06T08:33:42.534Z,66.33
2022-10-06T08:36:12.329Z,66.51
2022-10-06T08:38:41.738Z,67.03
2022-10-06T08:41:21.205Z,66.75
2022-10-06T08:43:56.111Z,66.50
2022-10-06T08:46:26.422Z,66.17
2022-10-06T08:48:54.135Z,66.36
2022-10-06T08:51:39.629Z,64.56
2022-10-06T08:54:14.205Z,63.71
2022-10-06T08:56:53.585Z,63.09
2022-10-06T08:59:21.637Z,62.29
2022-10-06T09:01:51.761Z,63.08
2022-10-06T09:04:23.310Z,62.27
2022-10-06T09:06:54.456Z,61.64
2022-10-06T09:09:40.775Z,63.79
2022-10-06T09:12:16.687Z,64.19
2022-10-06T09:14:49.639Z,64.45
2022-10-06T09:17:25.202Z,64.66
2022-10-06T09:19:58.084Z,64.02
2022-10-06T09:22:31.212Z,64.01
2022-10-06T09:25:14.110Z,65.41
2022-10-06T09:27:43.596Z,65.45
2022-10-06T09:30:12.811Z,65.66
2022-10-06T09:32:46.141Z,65.23
2022-10-06T09:35:18.636Z,65.54
2022-10-06T09:37:54.690Z,65.58
2022-10-06T09:40:39.807Z,65.72
2022-10-06T09:43:24.600Z,65.27
2022-10-06T09:45:52.127Z,65.13
2022-10-06T09:48:24.671Z,65.40
2022-10-06T09:51:12.383Z,66.23
2022-10-06T09:53:40.539Z,66.03
2022-10-06T09:56:18.524Z,66.13
2022-10-06T09:58:55.564Z,65.97
2022-10-06T10:01:24.869Z,66.05
2022-10-06T10:04:18.734Z,66.99
2022-10-06T10:06:42.204Z,65.64
2022-10-06T10:09:26.086Z,63.59
2022-10-06T10:12:12.229Z,63.64
2022-10-06T10:14:39.949Z,64.02
2022-10-06T10:17:10.907Z,63.85
2022-10-06T10:19:39.475Z,62.89
2022-10-06T10:22:17.952Z,63.30
2022-10-06T10:24:53.995Z,62.52
2022-10-06T10:27:31.955Z,63.64
2022-10-06T10:30:07.890Z,63.27
2022-10-06T10:32:57.149Z,61.98
2022-10-06T10:35:27.801Z,62.73
2022-10-06T10:38:01.362Z,61.72
2022-10-06T10:40:37.461Z,60.57
2022-10-06T10:43:14.718Z,60.86
2022-10-06T10:45:46.125Z,59.09
2022-10-06T10:48:16.333Z,58.66
2022-10-06T10:50:57.332Z,58.11
2022-10-06T10:53:32.522Z,58.57
2022-10-06T10:56:01.693Z,57.71
2022-10-06T10:58:35.529Z,58.35
2022-10-06T11:01:18.079Z,59.34
2022-10-06T11:03:48.946Z,59.09
2022-10-06T11:06:40.285Z,59.26
2022-10-06T11:09:12.022Z,58.57
2022-10-06T11:11:52.490Z,58.58
2022-10-06T11:14:33.801Z,60.08
2022-10-06T11:17:09.010Z,59.67
2022-10-06T11:19:45.216Z,59.93
2022-10-06T11:22:19.237Z,59.99
2022-10-06T11:25:01.467Z,59.79
2022-10-06T11:27:42.327Z,59.35
2022-10-06T11:30:15.624Z,60.69
2022-10-06T11:32:53.287Z,60.03
2022-10-06T11:35:23.534Z,60.24
2022-10-06T11:37:55.990Z,60.54
2022-10-06T11:40:36.896Z,58.79
2022-10-06T11:43:13.299Z,58.62
2022-10-06T11:45:52.165Z,56.72
2022-10-06T11:48:24.914Z,56.73
2022-10-06T11:50:53.242Z,56.82
2022-10-06T11:53:41.687Z,58.15
2022-10-06T11:56:28.172Z,57.42
2022-10-06T11:59:29.233Z,55.97
2022-10-06T12:02:00.039Z,55.01
2022-10-06T12:04:27.812Z,53.57
2022-10-06T12:06:59.806Z,52.82
2022-10-06T12:09:28.889Z,53.41
2022-10-06T12:11:58.512Z,53.77
2022-10-06T12:17:34.153Z,55.14
2022-10-06T12:20:13.415Z,55.81
2022-10-06T12:22:47.564Z,54.38
2022-10-06T12:25:22.827Z,55.50
2022-10-06T12:28:06.569Z,55.91
2022-10-06T12:30:48.207Z,55.99
2022-10-06T12:33:19.651Z,57.51
2022-10-06T12:35:46.985Z,57.28
2022-10-06T12:38:42.385Z,57.51
2022-10-06T12:41:11.030Z,57.07
2022-10-06T12:43:53.259Z,56.93
2022-10-06T12:46:43.751Z,56.88
2022-10-06T12:49:43.673Z,57.80
2022-10-06T12:52:28.836Z,57.53
2022-10-06T12:55:06.394Z,57.72
2022-10-06T12:57:45.379Z,55.94
2022-10-06T13:02:56.254Z,53.62
2022-10-06T13:05:25.315Z,52.89
2022-10-06T13:07:57.112Z,54.25
2022-10-06T13:10:25.018Z,52.55
2022-10-06T13:12:52.402Z,53.00
2022-10-06T13:15:22.528Z,50.80
2022-10-06T13:17:53.054Z,51.26
2022-10-06T13:20:34.044Z,49.74
2022-10-06T13:23:07.538Z,48.75
2022-10-06T13:25:43.731Z,50.18
2022-10-06T13:28:27.843Z,49.96
2022-10-06T13:30:57.913Z,50.28
2022-10-06T13:33:28.896Z,50.33
2022-10-06T13:35:58.220Z,49.77
2022-10-06T13:38:25.895Z,49.16
2022-10-06T13:41:05.145Z,49.49
2022-10-06T13:43:39.741Z,49.53
2022-10-06T13:46:09.638Z,49.12
2022-10-06T13:48:42.385Z,49.13
2022-10-06T13:51:16.529Z,48.77
2022-10-06T13:53:45.520Z,49.02
2022-10-06T13:56:36.358Z,48.14
2022-10-06T13:59:29.085Z,48.71
2022-10-06T14:01:58.147Z,48.69
2022-10-06T14:04:25.731Z,49.44
2022-10-06T14:06:58.151Z,49.43
2022-10-06T14:09:29.756Z,49.32
2022-10-06T14:12:03.885Z,48.93
2022-10-06T14:14:31.927Z,49.89
2022-10-06T14:16:59.460Z,49.77
2022-10-06T14:19:32.124Z,49.81
2022-10-06T14:22:01.156Z,50.05
2022-10-06T14:24:29.122Z,49.59
2022-10-06T14:27:01.559Z,48.58
2022-10-06T14:29:29.060Z,49.22
2022-10-06T14:32:07.766Z,49.06
2022-10-06T14:34:35.968Z,48.15
2022-10-06T14:37:05.398Z,48.17
2022-10-06T14:39:32.737Z,49.73
2022-10-06T14:42:00.087Z,49.85
2022-10-06T14:44:27.672Z,49.93
2022-10-06T14:46:55.002Z,50.83
2022-10-06T14:49:22.245Z,50.87
2022-10-06T14:51:49.840Z,50.58
2022-10-06T14:54:18.417Z,51.46
2022-10-06T14:56:45.700Z,50.36
2022-10-06T14:59:13.559Z,49.37
2022-10-06T15:01:40.837Z,50.51
2022-10-06T15:04:10.084Z,51.37
2022-10-06T15:06:38.205Z,51.84
2022-10-06T15:09:05.956Z,51.07
2022-10-06T15:11:37.640Z,52.09
2022-10-06T15:14:06.155Z,52.01
2022-10-06T15:16:36.805Z,51.30
2022-10-06T15:19:04.231Z,52.34
2022-10-06T15:21:32.156Z,52.55
2022-10-06T15:24:01.089Z,53.38
2022-10-06T15:26:28.756Z,53.36
2022-10-06T15:28:57.746Z,53.41
2022-10-06T15:31:25.347Z,53.37
2022-10-06T15:33:53.297Z,53.44
2022-10-06T15:36:22.886Z,53.26
2022-10-06T15:38:50.768Z,53.21
2022-10-06T15:41:18.700Z,53.39
2022-10-06T15:43:46.324Z,53.71
2022-10-06T15:46:15.139Z,53.93
2022-10-06T15:48:42.832Z,54.40
2022-10-06T15:51:10.526Z,55.18
2022-10-06T15:53:37.782Z,55.63
2022-10-06T15:56:06.023Z,55.87
2022-10-06T15:58:33.394Z,56.12
2022-10-06T16:01:00.986Z,55.89
2022-10-06T16:03:29.780Z,56.23
2022-10-06T16:05:57.072Z,55.87
2022-10-06T16:08:25.566Z,57.55
2022-10-06T16:10:52.796Z,58.67
2022-10-06T16:13:20.186Z,58.15
2022-10-06T16:15:52.882Z,57.41
2022-10-06T16:18:19.920Z,57.61
2022-10-06T16:20:53.651Z,56.18
2022-10-06T16:23:22.296Z,56.81
2022-10-06T16:25:50.445Z,58.64
2022-10-06T16:28:17.872Z,60.30
2022-10-06T16:30:54.706Z,58.04
2022-10-06T16:33:24.337Z,61.09
2022-10-06T16:35:57.159Z,62.47
2022-10-06T16:38:24.643Z,61.46
2022-10-06T16:40:55.097Z,57.43
2022-10-06T16:43:23.198Z,62.47
2022-10-06T16:46:01.953Z,59.64
2022-10-06T16:48:31.029Z,60.81
2022-10-06T16:51:08.684Z,61.94
2022-10-06T16:53:37.873Z,63.03
2022-10-06T16:56:07.490Z,63.42
2022-10-06T16:58:39.243Z,63.23
2022-10-06T17:01:08.360Z,65.82
2022-10-06T17:03:36.202Z,66.20
2022-10-06T17:06:11.379Z,64.70
2022-10-06T17:08:41.250Z,60.74
2022-10-06T17:11:12.288Z,63.10
2022-10-06T17:13:43.989Z,63.20
2022-10-06T17:16:14.076Z,62.56
2022-10-06T17:18:42.375Z,67.75
2022-10-06T17:21:39.658Z,67.34
2022-10-06T17:24:01.455Z,67.19
2022-10-06T17:26:30.039Z,61.68
2022-10-06T17:28:59.392Z,67.98
2022-10-06T17:31:30.869Z,66.97
2022-10-06T17:33:59.104Z,70.18
2022-10-06T17:36:28.038Z,62.38
2022-10-06T17:38:57.842Z,64.44
2022-10-06T17:41:27.159Z,62.22
2022-10-06T17:43:55.162Z,64.44
2022-10-06T17:46:23.175Z,68.28
2022-10-06T17:48:52.611Z,69.17
2022-10-06T17:51:21.482Z,68.67
2022-10-06T17:53:52.357Z,67.90
2022-10-06T17:56:21.199Z,64.90
2022-10-06T17:58:52.713Z,63.91
2022-10-06T18:01:21.779Z,63.50
2022-10-06T18:03:49.834Z,62.55
2022-10-06T18:06:17.944Z,60.80
2022-10-06T18:08:46.546Z,60.83
2022-10-06T18:11:18.063Z,62.04
2022-10-06T18:13:46.771Z,66.92
2022-10-06T18:16:16.212Z,64.28
2022-10-06T18:18:48.176Z,64.62
2022-10-06T18:21:15.815Z,64.31
2022-10-06T18:23:43.173Z,61.42
2022-10-06T18:26:12.222Z,60.48
2022-10-06T18:28:41.021Z,60.03
2022-10-06T18:31:08.798Z,60.32
2022-10-06T18:36:24.298Z,73.54
2022-10-06T18:38:51.994Z,73.38
2022-10-06T18:41:20.201Z,69.63
2022-10-06T18:43:49.325Z,71.47
2022-10-06T18:46:18.799Z,71.44
2022-10-06T18:48:46.265Z,67.92
2022-10-06T18:51:13.593Z,70.78
2022-10-06T18:53:41.379Z,70.92
2022-10-06T18:56:08.552Z,71.54
2022-10-06T18:58:38.206Z,67.70
2022-10-06T19:01:08.152Z,68.75
2022-10-06T19:03:35.504Z,63.02
2022-10-06T19:06:03.263Z,68.36
2022-10-06T19:08:31.451Z,64.63
2022-10-06T19:11:02.450Z,65.86
2022-10-06T19:13:30.063Z,69.40
2022-10-06T19:15:57.684Z,67.50
2022-10-06T19:18:33.362Z,63.89
2022-10-06T19:21:07.242Z,64.24
2022-10-06T19:23:38.191Z,65.21
2022-10-06T19:26:07.553Z,66.88
2022-10-06T19:28:35.077Z,69.89
2022-10-06T19:31:05.299Z,69.42
2022-10-06T19:33:33.939Z,65.42
2022-10-06T19:36:01.200Z,70.97
2022-10-06T19:38:28.952Z,70.03
2022-10-06T19:40:56.352Z,71.65
2022-10-06T19:43:23.913Z,70.46
2022-10-06T19:45:56.991Z,68.64
2022-10-06T19:48:24.295Z,69.55
2022-10-06T19:50:53.087Z,72.83
2022-10-06T19:53:20.673Z,73.31
2022-10-06T19:55:47.937Z,69.07
2022-10-06T19:58:15.570Z,70.44
2022-10-06T20:00:43.147Z,70.58
2022-10-06T20:03:10.381Z,69.40
2022-10-06T20:05:37.588Z,68.10
2022-10-06T20:08:06.514Z,73.96
2022-10-06T20:10:33.797Z,73.95
2022-10-06T20:13:01.093Z,72.82
2022-10-06T20:15:28.719Z,70.03
2022-10-06T20:17:55.987Z,69.64
2022-10-06T20:20:23.356Z,72.07
2022-10-06T20:22:51.102Z,72.43
2022-10-06T20:25:20.168Z,70.40
2022-10-06T20:27:47.482Z,68.66
2022-10-06T20:30:15.321Z,70.21
2022-10-06T20:32:42.575Z,69.17
2022-10-06T20:35:09.850Z,70.73
2022-10-06T20:37:37.363Z,72.18
2022-10-06T20:40:05.696Z,73.25
2022-10-06T20:42:34.436Z,75.96
2022-10-06T20:45:02.103Z,72.97
2022-10-06T20:47:29.441Z,68.67
2022-10-06T20:49:56.972Z,68.70
2022-10-06T20:52:24.412Z,70.45
2022-10-06T20:54:51.886Z,68.94
2022-10-06T20:57:19.490Z,70.00
2022-10-06T20:59:48.365Z,72.00
2022-10-06T21:02:15.554Z,72.29
2022-10-06T21:04:43.084Z,68.67
2022-10-06T21:07:10.568Z,67.83
2022-10-06T21:09:38.118Z,69.38
2022-10-06T21:12:05.829Z,69.70
2022-10-06T21:14:33.077Z,69.24
2022-10-06T21:17:01.825Z,71.05
2022-10-06T21:19:29.716Z,69.45
2022-10-06T21:21:57.100Z,74.38
2022-10-06T21:24:24.370Z,74.67
2022-10-06T21:26:52.203Z,74.71
2022-10-06T21:29:19.723Z,65.72
2022-10-06T21:31:47.177Z,68.46
2022-10-06T21:34:16.188Z,70.80
2022-10-06T21:36:43.603Z,70.46
2022-10-06T21:39:12.326Z,64.95
2022-10-06T21:41:41.278Z,68.56
2022-10-06T21:44:10.247Z,74.29
2022-10-06T21:46:39.222Z,73.57
2022-10-06T21:49:09.878Z,71.63
2022-10-06T21:51:39.568Z,70.61
2022-10-06T21:54:07.182Z,70.37
2022-10-06T21:56:34.593Z,68.80
2022-10-06T21:59:02.135Z,70.32
2022-10-06T22:04:16.379Z,67.64
2022-10-06T22:06:46.339Z,70.38
2022-10-06T22:09:15.936Z,73.06
2022-10-06T22:11:44.473Z,76.36
2022-10-06T22:14:14.159Z,74.27
2022-10-06T22:16:41.587Z,67.91
2022-10-06T22:19:11.218Z,66.70
2022-10-06T22:21:40.423Z,70.77
2022-10-06T22:24:10.505Z,75.28
2022-10-06T22:26:39.438Z,74.25
2022-10-06T22:29:08.628Z,71.31
2022-10-06T22:31:38.523Z,68.37
2022-10-06T22:34:06.344Z,73.23
2022-10-06T22:36:34.605Z,76.31
2022-10-06T22:39:02.484Z,77.17
2022-10-06T22:41:31.386Z,71.52
2022-10-06T22:43:59.887Z,69.86
2022-10-06T22:46:28.928Z,73.73
2022-10-06T22:48:56.536Z,77.39
2022-10-06T22:51:24.416Z,74.92
2022-10-06T22:53:56.686Z,71.65
2022-10-06T22:56:26.232Z,69.64
2022-10-06T22:58:55.375Z,68.48
2022-10-06T23:01:22.535Z,66.87
2022-10-06T23:03:50.511Z,67.46
2022-10-06T23:06:18.362Z,68.00
2022-10-06T23:08:45.730Z,68.11
2022-10-06T23:11:14.987Z,67.69
2022-10-06T23:13:43.455Z,68.93
2022-10-06T23:16:13.987Z,71.99
2022-10-06T23:18:42.483Z,70.49
2022-10-06T23:21:11.649Z,70.93
2022-10-06T23:23:38.943Z,67.42
2022-10-06T23:26:08.687Z,66.53
2022-10-06T23:28:36.642Z,66.47
2022-10-06T23:31:05.098Z,66.90
2022-10-06T23:33:34.833Z,67.39
2022-10-06T23:36:04.044Z,68.52
2022-10-06T23:38:31.629Z,68.22
2022-10-06T23:40:59.215Z,70.56
2022-10-06T23:43:26.555Z,74.68
2022-10-06T23:45:54.032Z,77.84
2022-10-06T23:48:21.670Z,78.29
2022-10-06T23:50:58.402Z,77.32
2022-10-06T23:53:26.475Z,77.50
2022-10-06T23:55:54.068Z,75.00
2022-10-06T23:58:21.765Z,75.19
